sensor_id;sensor_type;location;lat;lon;timestamp;P1;durP1;ratioP1;P2;durP2;ratioP2
22525;SDS011;11429;50.842;4.386;2023-07-29T00:01:37;1.80;;;1.27;;
22525;SDS011;11429;50.842;4.386;2023-07-29T00:04:05;2.22;;;1.30;;
22525;SDS011;11429;50.842;4.386;2023-07-29T00:06:33;2.35;;;1.10;;
22525;SDS011;11429;50.842;4.386;2023-07-29T00:08:58;2.88;;;1.30;;
22525;SDS011;11429;50.842;4.386;2023-07-29T00:11:24;3.38;;;1.48;;
22525;SDS011;11429;50.842;4.386;2023-07-29T00:13:50;2.00;;;1.20;;
22525;SDS011;11429;50.842;4.386;2023-07-29T00:16:16;2.45;;;1.33;;
22525;SDS011;11429;50.842;4.386;2023-07-29T00:18:42;3.47;;;1.50;;
22525;SDS011;11429;50.842;4.386;2023-07-29T00:21:08;3.25;;;1.77;;
22525;SDS011;11429;50.842;4.386;2023-07-29T00:23:34;3.35;;;1.23;;
22525;SDS011;11429;50.842;4.386;2023-07-29T00:26:00;1.63;;;1.10;;
22525;SDS011;11429;50.842;4.386;2023-07-29T00:28:25;2.42;;;1.33;;
22525;SDS011;11429;50.842;4.386;2023-07-29T00:30:51;1.73;;;1.30;;
22525;SDS011;11429;50.842;4.386;2023-07-29T00:33:16;1.88;;;1.38;;
22525;SDS011;11429;50.842;4.386;2023-07-29T00:35:42;3.50;;;1.60;;
22525;SDS011;11429;50.842;4.386;2023-07-29T00:38:08;2.38;;;1.20;;
22525;SDS011;11429;50.842;4.386;2023-07-29T00:40:35;3.90;;;1.30;;
22525;SDS011;11429;50.842;4.386;2023-07-29T00:43:01;3.15;;;1.27;;
22525;SDS011;11429;50.842;4.386;2023-07-29T00:45:27;4.00;;;1.40;;
22525;SDS011;11429;50.842;4.386;2023-07-29T00:47:55;1.42;;;1.10;;
22525;SDS011;11429;50.842;4.386;2023-07-29T00:50:21;2.38;;;1.15;;
22525;SDS011;11429;50.842;4.386;2023-07-29T00:52:48;4.45;;;1.50;;
22525;SDS011;11429;50.842;4.386;2023-07-29T00:55:14;1.45;;;1.30;;
22525;SDS011;11429;50.842;4.386;2023-07-29T00:57:40;2.83;;;1.17;;
22525;SDS011;11429;50.842;4.386;2023-07-29T01:00:07;3.67;;;1.52;;
22525;SDS011;11429;50.842;4.386;2023-07-29T01:02:34;2.88;;;1.42;;
22525;SDS011;11429;50.842;4.386;2023-07-29T01:05:00;3.30;;;1.70;;
22525;SDS011;11429;50.842;4.386;2023-07-29T01:10:10;3.20;;;1.43;;
22525;SDS011;11429;50.842;4.386;2023-07-29T01:18:05;1.80;;;1.20;;
22525;SDS011;11429;50.842;4.386;2023-07-29T01:20:33;3.65;;;1.33;;
22525;SDS011;11429;50.842;4.386;2023-07-29T01:23:02;1.95;;;1.30;;
22525;SDS011;11429;50.842;4.386;2023-07-29T01:25:27;3.88;;;1.60;;
22525;SDS011;11429;50.842;4.386;2023-07-29T01:27:53;2.55;;;1.35;;
22525;SDS011;11429;50.842;4.386;2023-07-29T01:30:20;2.25;;;1.50;;
22525;SDS011;11429;50.842;4.386;2023-07-29T01:32:55;5.18;;;1.45;;
22525;SDS011;11429;50.842;4.386;2023-07-29T01:38:17;2.28;;;1.50;;
22525;SDS011;11429;50.842;4.386;2023-07-29T01:40:45;2.85;;;1.70;;
22525;SDS011;11429;50.842;4.386;2023-07-29T01:43:13;3.45;;;1.30;;
22525;SDS011;11429;50.842;4.386;2023-07-29T01:45:39;2.67;;;1.80;;
22525;SDS011;11429;50.842;4.386;2023-07-29T01:48:05;3.55;;;1.88;;
22525;SDS011;11429;50.842;4.386;2023-07-29T01:50:32;5.18;;;1.88;;
22525;SDS011;11429;50.842;4.386;2023-07-29T01:52:58;2.70;;;1.80;;
22525;SDS011;11429;50.842;4.386;2023-07-29T01:55:24;6.28;;;1.92;;
22525;SDS011;11429;50.842;4.386;2023-07-29T01:57:49;7.05;;;1.90;;
22525;SDS011;11429;50.842;4.386;2023-07-29T02:00:16;3.20;;;1.52;;
22525;SDS011;11429;50.842;4.386;2023-07-29T02:02:43;3.08;;;1.60;;
22525;SDS011;11429;50.842;4.386;2023-07-29T02:05:09;3.50;;;1.60;;
22525;SDS011;11429;50.842;4.386;2023-07-29T02:07:34;2.45;;;1.52;;
22525;SDS011;11429;50.842;4.386;2023-07-29T02:10:00;2.60;;;1.92;;
22525;SDS011;11429;50.842;4.386;2023-07-29T02:12:26;3.58;;;1.80;;
22525;SDS011;11429;50.842;4.386;2023-07-29T02:14:51;2.70;;;1.75;;
22525;SDS011;11429;50.842;4.386;2023-07-29T02:17:17;5.00;;;2.53;;
22525;SDS011;11429;50.842;4.386;2023-07-29T02:19:43;4.90;;;1.90;;
22525;SDS011;11429;50.842;4.386;2023-07-29T02:22:09;3.72;;;2.00;;
22525;SDS011;11429;50.842;4.386;2023-07-29T02:24:36;6.10;;;2.00;;
22525;SDS011;11429;50.842;4.386;2023-07-29T02:27:01;4.18;;;1.90;;
22525;SDS011;11429;50.842;4.386;2023-07-29T02:29:27;4.50;;;1.65;;
22525;SDS011;11429;50.842;4.386;2023-07-29T02:31:53;2.97;;;1.65;;
22525;SDS011;11429;50.842;4.386;2023-07-29T02:34:18;3.42;;;1.40;;
22525;SDS011;11429;50.842;4.386;2023-07-29T02:36:44;4.28;;;1.60;;
22525;SDS011;11429;50.842;4.386;2023-07-29T02:39:10;2.95;;;1.45;;
22525;SDS011;11429;50.842;4.386;2023-07-29T02:41:36;3.97;;;1.65;;
22525;SDS011;11429;50.842;4.386;2023-07-29T02:44:01;5.68;;;1.85;;
22525;SDS011;11429;50.842;4.386;2023-07-29T02:46:28;3.85;;;1.40;;
22525;SDS011;11429;50.842;4.386;2023-07-29T02:48:54;2.75;;;1.50;;
22525;SDS011;11429;50.842;4.386;2023-07-29T02:51:19;3.17;;;1.35;;
22525;SDS011;11429;50.842;4.386;2023-07-29T02:53:45;3.50;;;1.77;;
22525;SDS011;11429;50.842;4.386;2023-07-29T02:56:11;2.17;;;1.45;;
22525;SDS011;11429;50.842;4.386;2023-07-29T02:58:36;4.05;;;1.60;;
22525;SDS011;11429;50.842;4.386;2023-07-29T03:01:03;4.43;;;1.58;;
22525;SDS011;11429;50.842;4.386;2023-07-29T03:03:30;2.58;;;1.40;;
22525;SDS011;11429;50.842;4.386;2023-07-29T03:05:58;3.47;;;1.42;;
22525;SDS011;11429;50.842;4.386;2023-07-29T03:08:25;3.90;;;1.70;;
22525;SDS011;11429;50.842;4.386;2023-07-29T03:10:50;3.40;;;1.67;;
22525;SDS011;11429;50.842;4.386;2023-07-29T03:13:16;3.25;;;1.92;;
22525;SDS011;11429;50.842;4.386;2023-07-29T03:15:41;2.67;;;1.40;;
22525;SDS011;11429;50.842;4.386;2023-07-29T03:18:07;3.42;;;1.50;;
22525;SDS011;11429;50.842;4.386;2023-07-29T03:20:33;2.30;;;1.90;;
22525;SDS011;11429;50.842;4.386;2023-07-29T03:22:58;2.30;;;1.35;;
22525;SDS011;11429;50.842;4.386;2023-07-29T03:25:24;2.70;;;1.52;;
22525;SDS011;11429;50.842;4.386;2023-07-29T03:27:50;4.68;;;1.80;;
22525;SDS011;11429;50.842;4.386;2023-07-29T03:30:18;2.90;;;1.98;;
22525;SDS011;11429;50.842;4.386;2023-07-29T03:32:46;3.03;;;1.70;;
22525;SDS011;11429;50.842;4.386;2023-07-29T03:35:11;4.65;;;2.00;;
22525;SDS011;11429;50.842;4.386;2023-07-29T03:37:37;4.43;;;1.95;;
22525;SDS011;11429;50.842;4.386;2023-07-29T03:40:03;5.13;;;1.90;;
22525;SDS011;11429;50.842;4.386;2023-07-29T03:42:30;3.28;;;1.40;;
22525;SDS011;11429;50.842;4.386;2023-07-29T03:44:55;3.30;;;2.10;;
22525;SDS011;11429;50.842;4.386;2023-07-29T03:47:21;4.40;;;2.10;;
22525;SDS011;11429;50.842;4.386;2023-07-29T03:49:47;2.83;;;1.70;;
22525;SDS011;11429;50.842;4.386;2023-07-29T03:52:12;3.42;;;1.80;;
22525;SDS011;11429;50.842;4.386;2023-07-29T03:54:38;2.97;;;2.10;;
22525;SDS011;11429;50.842;4.386;2023-07-29T03:57:04;4.78;;;2.28;;
22525;SDS011;11429;50.842;4.386;2023-07-29T03:59:29;3.22;;;1.60;;
22525;SDS011;11429;50.842;4.386;2023-07-29T04:01:55;2.22;;;1.55;;
22525;SDS011;11429;50.842;4.386;2023-07-29T04:04:21;2.80;;;1.90;;
22525;SDS011;11429;50.842;4.386;2023-07-29T04:06:46;2.75;;;1.70;;
22525;SDS011;11429;50.842;4.386;2023-07-29T04:09:12;3.20;;;1.95;;
22525;SDS011;11429;50.842;4.386;2023-07-29T04:11:38;5.07;;;2.05;;
22525;SDS011;11429;50.842;4.386;2023-07-29T04:14:04;3.95;;;1.70;;
22525;SDS011;11429;50.842;4.386;2023-07-29T04:16:29;2.97;;;1.67;;
22525;SDS011;11429;50.842;4.386;2023-07-29T04:18:55;4.57;;;1.52;;
22525;SDS011;11429;50.842;4.386;2023-07-29T04:21:21;4.70;;;1.85;;
22525;SDS011;11429;50.842;4.386;2023-07-29T04:23:47;3.20;;;1.88;;
22525;SDS011;11429;50.842;4.386;2023-07-29T04:26:12;2.20;;;1.80;;
22525;SDS011;11429;50.842;4.386;2023-07-29T04:28:38;2.53;;;1.73;;
22525;SDS011;11429;50.842;4.386;2023-07-29T04:31:04;4.28;;;1.88;;
22525;SDS011;11429;50.842;4.386;2023-07-29T04:33:30;2.53;;;1.80;;
22525;SDS011;11429;50.842;4.386;2023-07-29T04:35:56;5.88;;;1.80;;
22525;SDS011;11429;50.842;4.386;2023-07-29T04:38:24;2.97;;;1.92;;
22525;SDS011;11429;50.842;4.386;2023-07-29T04:40:56;3.30;;;1.92;;
22525;SDS011;11429;50.842;4.386;2023-07-29T04:43:21;3.55;;;1.85;;
22525;SDS011;11429;50.842;4.386;2023-07-29T04:45:47;7.07;;;1.63;;
22525;SDS011;11429;50.842;4.386;2023-07-29T04:48:13;2.28;;;1.80;;
22525;SDS011;11429;50.842;4.386;2023-07-29T04:50:38;4.38;;;1.88;;
22525;SDS011;11429;50.842;4.386;2023-07-29T04:53:04;3.60;;;1.75;;
22525;SDS011;11429;50.842;4.386;2023-07-29T04:55:30;3.53;;;1.80;;
22525;SDS011;11429;50.842;4.386;2023-07-29T04:57:56;4.05;;;1.85;;
22525;SDS011;11429;50.842;4.386;2023-07-29T05:00:21;3.10;;;1.80;;
22525;SDS011;11429;50.842;4.386;2023-07-29T05:02:47;3.95;;;2.13;;
22525;SDS011;11429;50.842;4.386;2023-07-29T05:05:13;13.98;;;2.83;;
22525;SDS011;11429;50.842;4.386;2023-07-29T05:07:38;5.80;;;2.38;;
22525;SDS011;11429;50.842;4.386;2023-07-29T05:10:04;3.13;;;1.73;;
22525;SDS011;11429;50.842;4.386;2023-07-29T05:12:31;3.65;;;2.08;;
22525;SDS011;11429;50.842;4.386;2023-07-29T05:14:57;5.00;;;1.88;;
22525;SDS011;11429;50.842;4.386;2023-07-29T05:17:23;2.55;;;1.88;;
22525;SDS011;11429;50.842;4.386;2023-07-29T05:19:49;3.50;;;1.52;;
22525;SDS011;11429;50.842;4.386;2023-07-29T05:22:14;4.38;;;1.50;;
22525;SDS011;11429;50.842;4.386;2023-07-29T05:24:40;4.60;;;1.80;;
22525;SDS011;11429;50.842;4.386;2023-07-29T05:27:06;4.30;;;1.80;;
22525;SDS011;11429;50.842;4.386;2023-07-29T05:29:33;5.18;;;1.70;;
22525;SDS011;11429;50.842;4.386;2023-07-29T05:31:59;5.97;;;1.75;;
22525;SDS011;11429;50.842;4.386;2023-07-29T05:34:25;3.90;;;1.48;;
22525;SDS011;11429;50.842;4.386;2023-07-29T05:36:51;3.88;;;1.70;;
22525;SDS011;11429;50.842;4.386;2023-07-29T05:39:17;3.45;;;1.48;;
22525;SDS011;11429;50.842;4.386;2023-07-29T05:41:42;6.10;;;1.70;;
22525;SDS011;11429;50.842;4.386;2023-07-29T05:44:08;3.25;;;1.58;;
22525;SDS011;11429;50.842;4.386;2023-07-29T05:46:34;3.50;;;1.20;;
22525;SDS011;11429;50.842;4.386;2023-07-29T05:48:59;1.58;;;1.17;;
22525;SDS011;11429;50.842;4.386;2023-07-29T05:51:25;2.92;;;1.27;;
22525;SDS011;11429;50.842;4.386;2023-07-29T05:53:51;5.75;;;2.00;;
22525;SDS011;11429;50.842;4.386;2023-07-29T05:56:16;2.20;;;1.23;;
22525;SDS011;11429;50.842;4.386;2023-07-29T05:58:42;2.33;;;0.93;;
22525;SDS011;11429;50.842;4.386;2023-07-29T06:01:09;2.22;;;1.00;;
22525;SDS011;11429;50.842;4.386;2023-07-29T06:03:34;3.63;;;1.25;;
22525;SDS011;11429;50.842;4.386;2023-07-29T06:06:00;1.85;;;0.90;;
22525;SDS011;11429;50.842;4.386;2023-07-29T06:08:26;3.35;;;1.40;;
22525;SDS011;11429;50.842;4.386;2023-07-29T06:10:53;3.70;;;1.10;;
22525;SDS011;11429;50.842;4.386;2023-07-29T06:13:19;2.28;;;1.25;;
22525;SDS011;11429;50.842;4.386;2023-07-29T06:15:44;3.13;;;1.20;;
22525;SDS011;11429;50.842;4.386;2023-07-29T06:18:10;1.40;;;1.00;;
22525;SDS011;11429;50.842;4.386;2023-07-29T06:20:36;3.13;;;1.30;;
22525;SDS011;11429;50.842;4.386;2023-07-29T06:23:02;2.55;;;0.93;;
22525;SDS011;11429;50.842;4.386;2023-07-29T06:25:27;2.00;;;1.05;;
22525;SDS011;11429;50.842;4.386;2023-07-29T06:27:53;3.08;;;1.30;;
22525;SDS011;11429;50.842;4.386;2023-07-29T06:30:19;2.95;;;1.80;;
22525;SDS011;11429;50.842;4.386;2023-07-29T06:32:44;3.63;;;1.23;;
22525;SDS011;11429;50.842;4.386;2023-07-29T06:35:10;3.15;;;1.23;;
22525;SDS011;11429;50.842;4.386;2023-07-29T06:37:36;3.53;;;1.38;;
22525;SDS011;11429;50.842;4.386;2023-07-29T06:40:01;3.40;;;1.15;;
22525;SDS011;11429;50.842;4.386;2023-07-29T06:42:28;1.98;;;1.08;;
22525;SDS011;11429;50.842;4.386;2023-07-29T06:44:53;2.13;;;0.93;;
22525;SDS011;11429;50.842;4.386;2023-07-29T06:47:19;3.70;;;1.10;;
22525;SDS011;11429;50.842;4.386;2023-07-29T06:49:45;2.22;;;1.10;;
22525;SDS011;11429;50.842;4.386;2023-07-29T06:52:11;2.20;;;1.10;;
22525;SDS011;11429;50.842;4.386;2023-07-29T06:54:37;3.88;;;1.27;;
22525;SDS011;11429;50.842;4.386;2023-07-29T06:57:03;3.03;;;1.42;;
22525;SDS011;11429;50.842;4.386;2023-07-29T06:59:29;1.77;;;1.10;;
22525;SDS011;11429;50.842;4.386;2023-07-29T07:01:54;1.83;;;1.00;;
22525;SDS011;11429;50.842;4.386;2023-07-29T07:04:20;3.40;;;1.15;;
22525;SDS011;11429;50.842;4.386;2023-07-29T07:06:45;2.00;;;1.20;;
22525;SDS011;11429;50.842;4.386;2023-07-29T07:09:11;4.65;;;1.30;;
22525;SDS011;11429;50.842;4.386;2023-07-29T07:11:37;1.20;;;1.00;;
22525;SDS011;11429;50.842;4.386;2023-07-29T07:14:02;2.63;;;1.50;;
22525;SDS011;11429;50.842;4.386;2023-07-29T07:16:28;4.38;;;1.27;;
22525;SDS011;11429;50.842;4.386;2023-07-29T07:18:57;2.25;;;1.17;;
22525;SDS011;11429;50.842;4.386;2023-07-29T07:21:22;1.92;;;1.17;;
22525;SDS011;11429;50.842;4.386;2023-07-29T07:23:51;3.22;;;1.20;;
22525;SDS011;11429;50.842;4.386;2023-07-29T07:26:16;2.75;;;1.20;;
22525;SDS011;11429;50.842;4.386;2023-07-29T07:28:42;3.03;;;1.40;;
22525;SDS011;11429;50.842;4.386;2023-07-29T07:31:08;3.38;;;1.38;;
22525;SDS011;11429;50.842;4.386;2023-07-29T07:33:33;6.05;;;1.60;;
22525;SDS011;11429;50.842;4.386;2023-07-29T07:35:59;1.92;;;1.30;;
22525;SDS011;11429;50.842;4.386;2023-07-29T07:38:25;3.05;;;1.45;;
22525;SDS011;11429;50.842;4.386;2023-07-29T07:40:56;4.65;;;1.40;;
22525;SDS011;11429;50.842;4.386;2023-07-29T07:43:23;2.85;;;1.10;;
22525;SDS011;11429;50.842;4.386;2023-07-29T07:45:49;3.85;;;1.52;;
22525;SDS011;11429;50.842;4.386;2023-07-29T07:48:15;3.47;;;1.15;;
22525;SDS011;11429;50.842;4.386;2023-07-29T07:50:42;4.97;;;1.30;;
22525;SDS011;11429;50.842;4.386;2023-07-29T07:53:08;4.97;;;1.30;;
22525;SDS011;11429;50.842;4.386;2023-07-29T07:55:33;2.05;;;1.10;;
22525;SDS011;11429;50.842;4.386;2023-07-29T07:57:59;2.42;;;1.15;;
22525;SDS011;11429;50.842;4.386;2023-07-29T08:00:25;2.67;;;1.20;;
22525;SDS011;11429;50.842;4.386;2023-07-29T08:02:50;2.42;;;1.30;;
22525;SDS011;11429;50.842;4.386;2023-07-29T08:05:16;4.50;;;1.20;;
22525;SDS011;11429;50.842;4.386;2023-07-29T08:07:43;3.22;;;1.35;;
22525;SDS011;11429;50.842;4.386;2023-07-29T08:10:09;1.65;;;1.30;;
22525;SDS011;11429;50.842;4.386;2023-07-29T08:12:34;1.40;;;0.98;;
22525;SDS011;11429;50.842;4.386;2023-07-29T08:15:00;2.30;;;1.30;;
22525;SDS011;11429;50.842;4.386;2023-07-29T08:17:26;4.78;;;1.50;;
22525;SDS011;11429;50.842;4.386;2023-07-29T08:19:51;3.95;;;1.15;;
22525;SDS011;11429;50.842;4.386;2023-07-29T08:22:17;2.85;;;1.40;;
22525;SDS011;11429;50.842;4.386;2023-07-29T08:24:43;2.30;;;0.90;;
22525;SDS011;11429;50.842;4.386;2023-07-29T08:27:08;3.88;;;1.10;;
22525;SDS011;11429;50.842;4.386;2023-07-29T08:29:35;2.05;;;1.13;;
22525;SDS011;11429;50.842;4.386;2023-07-29T08:32:00;2.65;;;1.17;;
22525;SDS011;11429;50.842;4.386;2023-07-29T08:34:26;1.20;;;0.98;;
22525;SDS011;11429;50.842;4.386;2023-07-29T08:36:52;2.13;;;1.02;;
22525;SDS011;11429;50.842;4.386;2023-07-29T08:39:17;2.80;;;1.30;;
22525;SDS011;11429;50.842;4.386;2023-07-29T08:41:51;2.60;;;1.10;;
22525;SDS011;11429;50.842;4.386;2023-07-29T08:44:40;3.08;;;1.20;;
22525;SDS011;11429;50.842;4.386;2023-07-29T08:47:07;3.63;;;1.30;;
22525;SDS011;11429;50.842;4.386;2023-07-29T08:49:33;3.33;;;1.40;;
22525;SDS011;11429;50.842;4.386;2023-07-29T08:51:59;2.35;;;1.30;;
22525;SDS011;11429;50.842;4.386;2023-07-29T08:54:26;3.40;;;1.30;;
22525;SDS011;11429;50.842;4.386;2023-07-29T08:56:52;2.92;;;1.20;;
22525;SDS011;11429;50.842;4.386;2023-07-29T08:59:17;1.70;;;1.05;;
22525;SDS011;11429;50.842;4.386;2023-07-29T09:01:45;4.80;;;1.77;;
22525;SDS011;11429;50.842;4.386;2023-07-29T09:04:11;2.58;;;1.40;;
22525;SDS011;11429;50.842;4.386;2023-07-29T09:06:37;5.32;;;1.42;;
22525;SDS011;11429;50.842;4.386;2023-07-29T09:09:05;2.17;;;1.27;;
22525;SDS011;11429;50.842;4.386;2023-07-29T09:11:32;2.03;;;1.13;;
22525;SDS011;11429;50.842;4.386;2023-07-29T09:13:58;1.50;;;1.30;;
22525;SDS011;11429;50.842;4.386;2023-07-29T09:16:24;3.42;;;1.48;;
22525;SDS011;11429;50.842;4.386;2023-07-29T09:18:51;1.55;;;1.20;;
22525;SDS011;11429;50.842;4.386;2023-07-29T09:21:26;4.20;;;1.50;;
22525;SDS011;11429;50.842;4.386;2023-07-29T09:23:53;2.78;;;1.23;;
22525;SDS011;11429;50.842;4.386;2023-07-29T09:26:23;2.38;;;1.27;;
22525;SDS011;11429;50.842;4.386;2023-07-29T09:28:54;2.60;;;1.50;;
22525;SDS011;11429;50.842;4.386;2023-07-29T09:31:24;6.80;;;1.50;;
22525;SDS011;11429;50.842;4.386;2023-07-29T09:34:04;2.92;;;1.10;;
22525;SDS011;11429;50.842;4.386;2023-07-29T09:36:31;4.32;;;1.20;;
22525;SDS011;11429;50.842;4.386;2023-07-29T09:38:57;2.85;;;1.50;;
22525;SDS011;11429;50.842;4.386;2023-07-29T09:41:24;4.32;;;1.75;;
22525;SDS011;11429;50.842;4.386;2023-07-29T09:43:56;2.75;;;1.50;;
22525;SDS011;11429;50.842;4.386;2023-07-29T09:46:24;4.22;;;1.30;;
22525;SDS011;11429;50.842;4.386;2023-07-29T09:48:56;3.67;;;1.58;;
22525;SDS011;11429;50.842;4.386;2023-07-29T09:51:22;2.45;;;1.35;;
22525;SDS011;11429;50.842;4.386;2023-07-29T09:53:50;3.30;;;1.35;;
22525;SDS011;11429;50.842;4.386;2023-07-29T09:56:23;2.00;;;1.45;;
22525;SDS011;11429;50.842;4.386;2023-07-29T09:58:51;3.22;;;1.50;;
22525;SDS011;11429;50.842;4.386;2023-07-29T10:01:18;2.72;;;1.67;;
22525;SDS011;11429;50.842;4.386;2023-07-29T10:03:44;5.97;;;1.83;;
22525;SDS011;11429;50.842;4.386;2023-07-29T10:06:10;4.60;;;1.50;;
22525;SDS011;11429;50.842;4.386;2023-07-29T10:08:37;5.03;;;1.30;;
22525;SDS011;11429;50.842;4.386;2023-07-29T10:11:05;2.58;;;1.65;;
22525;SDS011;11429;50.842;4.386;2023-07-29T10:13:32;2.55;;;1.70;;
22525;SDS011;11429;50.842;4.386;2023-07-29T10:15:59;3.55;;;1.33;;
22525;SDS011;11429;50.842;4.386;2023-07-29T10:18:27;3.35;;;1.30;;
22525;SDS011;11429;50.842;4.386;2023-07-29T10:20:53;3.58;;;1.48;;
22525;SDS011;11429;50.842;4.386;2023-07-29T10:23:21;2.78;;;1.20;;
22525;SDS011;11429;50.842;4.386;2023-07-29T10:26:09;2.35;;;1.35;;
22525;SDS011;11429;50.842;4.386;2023-07-29T10:28:37;3.30;;;1.42;;
22525;SDS011;11429;50.842;4.386;2023-07-29T10:31:05;2.05;;;1.70;;
22525;SDS011;11429;50.842;4.386;2023-07-29T10:33:32;2.67;;;1.30;;
22525;SDS011;11429;50.842;4.386;2023-07-29T10:35:59;7.60;;;2.40;;
22525;SDS011;11429;50.842;4.386;2023-07-29T10:38:26;7.00;;;2.67;;
22525;SDS011;11429;50.842;4.386;2023-07-29T10:40:52;8.75;;;2.80;;
22525;SDS011;11429;50.842;4.386;2023-07-29T10:43:26;4.40;;;2.22;;
22525;SDS011;11429;50.842;4.386;2023-07-29T10:46:14;6.13;;;2.20;;
22525;SDS011;11429;50.842;4.386;2023-07-29T10:51:25;4.03;;;2.28;;
22525;SDS011;11429;50.842;4.386;2023-07-29T10:56:34;4.85;;;2.25;;
22525;SDS011;11429;50.842;4.386;2023-07-29T11:01:43;3.90;;;2.65;;
22525;SDS011;11429;50.842;4.386;2023-07-29T11:07:01;4.95;;;2.75;;
22525;SDS011;11429;50.842;4.386;2023-07-29T11:09:51;6.18;;;3.13;;
22525;SDS011;11429;50.842;4.386;2023-07-29T11:17:38;4.15;;;2.55;;
22525;SDS011;11429;50.842;4.386;2023-07-29T11:20:15;4.90;;;2.67;;
22525;SDS011;11429;50.842;4.386;2023-07-29T11:22:41;4.35;;;2.72;;
22525;SDS011;11429;50.842;4.386;2023-07-29T11:25:09;3.10;;;2.42;;
22525;SDS011;11429;50.842;4.386;2023-07-29T11:27:36;4.10;;;2.90;;
22525;SDS011;11429;50.842;4.386;2023-07-29T11:30:06;2.88;;;2.35;;
22525;SDS011;11429;50.842;4.386;2023-07-29T11:32:33;3.50;;;1.98;;
22525;SDS011;11429;50.842;4.386;2023-07-29T11:35:04;2.80;;;2.25;;
22525;SDS011;11429;50.842;4.386;2023-07-29T11:37:35;2.67;;;2.03;;
22525;SDS011;11429;50.842;4.386;2023-07-29T11:40:01;2.78;;;1.77;;
22525;SDS011;11429;50.842;4.386;2023-07-29T11:42:27;2.08;;;1.65;;
22525;SDS011;11429;50.842;4.386;2023-07-29T11:44:57;2.95;;;2.10;;
22525;SDS011;11429;50.842;4.386;2023-07-29T11:47:23;2.35;;;1.67;;
22525;SDS011;11429;50.842;4.386;2023-07-29T11:49:49;2.83;;;1.80;;
22525;SDS011;11429;50.842;4.386;2023-07-29T11:52:15;2.22;;;1.60;;
22525;SDS011;11429;50.842;4.386;2023-07-29T11:54:45;3.35;;;1.90;;
22525;SDS011;11429;50.842;4.386;2023-07-29T11:57:12;2.10;;;1.70;;
22525;SDS011;11429;50.842;4.386;2023-07-29T11:59:39;2.13;;;1.77;;
22525;SDS011;11429;50.842;4.386;2023-07-29T12:02:10;3.05;;;1.88;;
22525;SDS011;11429;50.842;4.386;2023-07-29T12:04:38;3.28;;;2.38;;
22525;SDS011;11429;50.842;4.386;2023-07-29T12:07:05;3.35;;;1.80;;
22525;SDS011;11429;50.842;4.386;2023-07-29T12:09:31;4.18;;;2.40;;
22525;SDS011;11429;50.842;4.386;2023-07-29T12:11:58;3.90;;;2.72;;
22525;SDS011;11429;50.842;4.386;2023-07-29T12:14:28;2.65;;;2.10;;
22525;SDS011;11429;50.842;4.386;2023-07-29T12:16:54;3.83;;;2.50;;
22525;SDS011;11429;50.842;4.386;2023-07-29T12:19:20;4.45;;;3.10;;
22525;SDS011;11429;50.842;4.386;2023-07-29T12:21:47;3.95;;;3.13;;
22525;SDS011;11429;50.842;4.386;2023-07-29T12:24:14;7.07;;;3.45;;
22525;SDS011;11429;50.842;4.386;2023-07-29T12:26:40;4.93;;;2.65;;
22525;SDS011;11429;50.842;4.386;2023-07-29T12:29:16;4.65;;;3.10;;
22525;SDS011;11429;50.842;4.386;2023-07-29T12:34:21;3.58;;;2.50;;
22525;SDS011;11429;50.842;4.386;2023-07-29T12:36:50;4.22;;;2.60;;
22525;SDS011;11429;50.842;4.386;2023-07-29T12:39:17;4.93;;;2.70;;
22525;SDS011;11429;50.842;4.386;2023-07-29T12:41:44;4.38;;;2.90;;
22525;SDS011;11429;50.842;4.386;2023-07-29T12:44:10;4.05;;;2.72;;
22525;SDS011;11429;50.842;4.386;2023-07-29T12:46:36;4.35;;;2.80;;
22525;SDS011;11429;50.842;4.386;2023-07-29T12:49:01;2.83;;;2.40;;
22525;SDS011;11429;50.842;4.386;2023-07-29T12:51:27;4.07;;;2.85;;
22525;SDS011;11429;50.842;4.386;2023-07-29T12:53:55;3.28;;;2.65;;
22525;SDS011;11429;50.842;4.386;2023-07-29T12:56:21;3.28;;;2.50;;
22525;SDS011;11429;50.842;4.386;2023-07-29T12:58:47;4.53;;;2.63;;
22525;SDS011;11429;50.842;4.386;2023-07-29T13:01:13;3.80;;;2.70;;
22525;SDS011;11429;50.842;4.386;2023-07-29T13:03:42;4.35;;;2.45;;
22525;SDS011;11429;50.842;4.386;2023-07-29T13:06:12;2.65;;;2.25;;
22525;SDS011;11429;50.842;4.386;2023-07-29T13:08:38;3.72;;;2.45;;
22525;SDS011;11429;50.842;4.386;2023-07-29T13:11:03;2.75;;;2.10;;
22525;SDS011;11429;50.842;4.386;2023-07-29T13:13:30;3.03;;;2.50;;
22525;SDS011;11429;50.842;4.386;2023-07-29T13:15:56;3.85;;;2.70;;
22525;SDS011;11429;50.842;4.386;2023-07-29T13:18:22;2.70;;;2.50;;
22525;SDS011;11429;50.842;4.386;2023-07-29T13:20:48;2.97;;;2.67;;
22525;SDS011;11429;50.842;4.386;2023-07-29T13:23:15;3.25;;;2.40;;
22525;SDS011;11429;50.842;4.386;2023-07-29T13:25:41;2.45;;;2.25;;
22525;SDS011;11429;50.842;4.386;2023-07-29T13:28:08;2.92;;;2.30;;
22525;SDS011;11429;50.842;4.386;2023-07-29T13:30:34;2.42;;;2.22;;
22525;SDS011;11429;50.842;4.386;2023-07-29T13:33:00;2.47;;;2.15;;
22525;SDS011;11429;50.842;4.386;2023-07-29T13:35:26;2.67;;;2.03;;
22525;SDS011;11429;50.842;4.386;2023-07-29T13:37:52;2.95;;;1.98;;
22525;SDS011;11429;50.842;4.386;2023-07-29T13:40:18;2.05;;;1.80;;
22525;SDS011;11429;50.842;4.386;2023-07-29T13:42:44;2.90;;;2.60;;
22525;SDS011;11429;50.842;4.386;2023-07-29T13:45:09;3.05;;;1.92;;
22525;SDS011;11429;50.842;4.386;2023-07-29T13:47:35;2.50;;;1.98;;
22525;SDS011;11429;50.842;4.386;2023-07-29T21:22:02;6.05;;;2.22;;
22525;SDS011;11429;50.842;4.386;2023-07-29T21:24:28;8.02;;;2.40;;
22525;SDS011;11429;50.842;4.386;2023-07-29T21:29:25;9.13;;;2.75;;
22525;SDS011;11429;50.842;4.386;2023-07-29T21:31:52;7.60;;;2.70;;
22525;SDS011;11429;50.842;4.386;2023-07-29T21:34:18;5.25;;;2.70;;
22525;SDS011;11429;50.842;4.386;2023-07-29T21:36:43;8.50;;;2.70;;
22525;SDS011;11429;50.842;4.386;2023-07-29T21:39:09;6.47;;;2.03;;
22525;SDS011;11429;50.842;4.386;2023-07-29T21:41:35;6.90;;;2.60;;
22525;SDS011;11429;50.842;4.386;2023-07-29T21:44:01;6.47;;;2.55;;
22525;SDS011;11429;50.842;4.386;2023-07-29T21:46:27;9.55;;;2.63;;
22525;SDS011;11429;50.842;4.386;2023-07-29T21:48:53;6.00;;;2.17;;
22525;SDS011;11429;50.842;4.386;2023-07-29T21:51:18;4.95;;;1.85;;
22525;SDS011;11429;50.842;4.386;2023-07-29T21:53:44;8.07;;;2.35;;
22525;SDS011;11429;50.842;4.386;2023-07-29T21:56:10;8.05;;;2.70;;
22525;SDS011;11429;50.842;4.386;2023-07-29T21:58:36;5.88;;;2.22;;
22525;SDS011;11429;50.842;4.386;2023-07-29T22:01:02;6.95;;;2.45;;
22525;SDS011;11429;50.842;4.386;2023-07-29T22:03:29;8.48;;;2.63;;
22525;SDS011;11429;50.842;4.386;2023-07-29T22:06:01;5.93;;;2.50;;
22525;SDS011;11429;50.842;4.386;2023-07-29T22:08:30;8.27;;;2.58;;
22525;SDS011;11429;50.842;4.386;2023-07-29T22:11:04;5.93;;;2.80;;
22525;SDS011;11429;50.842;4.386;2023-07-29T22:13:30;8.10;;;2.75;;
22525;SDS011;11429;50.842;4.386;2023-07-29T22:16:02;6.85;;;2.78;;
22525;SDS011;11429;50.842;4.386;2023-07-29T22:18:29;5.57;;;2.55;;
22525;SDS011;11429;50.842;4.386;2023-07-29T22:20:55;9.27;;;2.80;;
22525;SDS011;11429;50.842;4.386;2023-07-29T22:23:22;6.85;;;2.50;;
22525;SDS011;11429;50.842;4.386;2023-07-29T22:26:02;9.98;;;2.90;;
22525;SDS011;11429;50.842;4.386;2023-07-29T22:28:29;6.22;;;2.60;;
22525;SDS011;11429;50.842;4.386;2023-07-29T22:30:58;7.75;;;2.70;;
22525;SDS011;11429;50.842;4.386;2023-07-29T22:33:25;9.30;;;2.45;;
22525;SDS011;11429;50.842;4.386;2023-07-29T22:35:51;8.40;;;2.97;;
22525;SDS011;11429;50.842;4.386;2023-07-29T22:38:17;10.48;;;2.85;;
22525;SDS011;11429;50.842;4.386;2023-07-29T22:40:49;10.70;;;2.67;;
22525;SDS011;11429;50.842;4.386;2023-07-29T22:43:16;6.60;;;2.70;;
22525;SDS011;11429;50.842;4.386;2023-07-29T22:45:42;5.93;;;2.40;;
22525;SDS011;11429;50.842;4.386;2023-07-29T22:48:14;5.50;;;2.45;;
22525;SDS011;11429;50.842;4.386;2023-07-29T22:50:39;7.18;;;2.65;;